Nome の空港の天気 - METARとTAF

Nome, Nome Airport ( PAOM / OME ) - アメリカ アラスカ州Nome
飛行場実況気象(Metar)
観測時間10/25 11:53 AKDT (10/25 19:53 UTC)
風向・風速北北東 2m/s
視程10km以上
天気現象
全天の8割程度の雲 雲底高度 1310m
全天を覆う雲 雲底高度 1830m
気温2.8℃
湿度89%
気圧1012hPa
METARPAOM 251953Z 03004KT 10SM BKN043 OVC060 03/01 A2988 RMK AO2 SLP120 T00280011 $
過去の天気等 Google飛行場航空写真 Wunderground天気予報

過去48時間のMETAR

飛行場予報(TAF)
発表時間: 10/25 09:29 AKDT (10/25 17:29 UTC)
予報対象時間: 25日10時 AKDT ~ 26日10時 AKDT
風向・風速北 2m/s
視程10km以上
天気現象周辺でしゅう雨
全天の8割程度の雲 雲底高度 850m
全天を覆う雲 雲底高度 1070m
25日14時 AKDT から
風向・風速東北東 3m/s
視程10km以上
天気現象周辺でしゅう雨
全天の8割程度の雲 雲底高度 610m
全天を覆う雲 雲底高度 1070m
26日0時 AKDT から
風向・風速北 3m/s
視程10km以上
全天の8割程度の雲 雲底高度 1220m
全天を覆う雲 雲底高度 3050m
PAOM 251729Z 2518/2618 36003KT P6SM VCSH BKN028 OVC035
FM252200 06006KT P6SM VCSH BKN020 OVC035
FM260800 35006KT P6SM BKN040 OVC100